»·PEaware :: DAL571 KLAX-KSAN

DAL571 :: KLAX-KSAN

FLIGHT INFORMATION

Flight Status: Arrived
Operator:
Delta Air Lines
More flights by this operator :: More flights under this callsign
Pilot: John H. (20300)
Aircraft: AIRBUS A320
(A320)
More flights by this aircraft type
Origin: KLAX Los Angeles Intl
United States
Destination: KSAN San Diego Intl-Lindbergh
United States
More flights between these airports :: More routes between these airports
Route: +LAXX1 MZB
File this flight plan on PilotEdge
Remarks:
Altitude:
(Current/Filed)
110ft
Speed:
(Current/Filed)
320kts
Departed: 22-Sep-18 05:05 PM
Arrived: 22-Sep-18 05:41 PM
Distance/Time
Traveled:
94nm/0:36
Distance/Time
To Go:
Arrived

Flight Plot

Page will automatically refresh every two minutes.

Flight plan parsing failed; only flown route is shown


Map Options




Map Legend


Flown Route
Filed Route
Departure Airport
Arrival Airport
Navaid (VOR, NDB)
Fix

Horizontal Profiles

Position Reports

Time Latitude Longitude Heading Altitude Ground
Speed
22-Sep-18 16:49 33.943471 -118.431918 262 140ft 0kts
22-Sep-18 16:50 33.943471 -118.431921 262 140ft 0kts
22-Sep-18 16:51 33.943471 -118.431924 262 140ft 0kts
22-Sep-18 16:52 33.943470 -118.431927 262 140ft 0kts
22-Sep-18 16:53 33.943470 -118.431930 262 140ft 0kts
22-Sep-18 16:54 33.943470 -118.431933 262 140ft 0kts
22-Sep-18 16:55 33.943470 -118.431936 262 140ft 0kts
22-Sep-18 16:56 33.943469 -118.431939 262 140ft 0kts
22-Sep-18 16:57 33.943469 -118.431942 262 140ft 0kts
22-Sep-18 16:58 33.943469 -118.431945 262 140ft 0kts
22-Sep-18 16:59 33.943468 -118.431948 262 140ft 0kts
22-Sep-18 17:00 33.943468 -118.431951 262 140ft 0kts
22-Sep-18 17:01 33.941886 -118.430355 138 140ft 23kts
22-Sep-18 17:02 33.940651 -118.426877 172 140ft 0kts
22-Sep-18 17:03 33.940647 -118.426876 172 140ft 0kts
22-Sep-18 17:04 33.938770 -118.426598 172 140ft 40kts
22-Sep-18 17:05 33.937990 -118.416469 83 140ft 32kts
22-Sep-18 17:06 33.938291 -118.405392 82 140ft 40kts
22-Sep-18 17:07 33.939546 -118.392866 82 140ft 41kts
22-Sep-18 17:08 33.940353 -118.383303 164 140ft 0kts
22-Sep-18 17:09 33.938675 -118.392129 263 145ft 130kts
22-Sep-18 17:10 33.934808 -118.443244 268 3545ft 155kts
22-Sep-18 17:11 33.927950 -118.497498 262 6339ft 171kts
22-Sep-18 17:12 33.920436 -118.562942 261 8695ft 243kts
22-Sep-18 17:13 33.861000 -118.597909 173 10707ft 290kts
22-Sep-18 17:14 33.780936 -118.577602 171 10994ft 293kts
22-Sep-18 17:15 33.701328 -118.557036 171 10995ft 293kts
22-Sep-18 17:16 33.633544 -118.508427 123 11001ft 307kts
22-Sep-18 17:17 33.590680 -118.419352 121 10995ft 307kts
22-Sep-18 17:18 33.548132 -118.330448 121 10995ft 307kts
22-Sep-18 17:19 33.505622 -118.241594 121 10995ft 307kts
22-Sep-18 17:20 33.462360 -118.151229 121 11079ft 347kts
22-Sep-18 17:21 33.407536 -118.038611 121 11077ft 403kts
22-Sep-18 17:22 33.350840 -117.922307 121 11076ft 404kts
22-Sep-18 17:23 33.294388 -117.806425 121 11076ft 404kts
22-Sep-18 17:24 33.237989 -117.690571 121 11076ft 404kts
22-Sep-18 17:25 33.181463 -117.574373 121 11076ft 404kts
22-Sep-18 17:26 33.125179 -117.458593 121 11076ft 404kts
22-Sep-18 17:27 33.057071 -117.354574 138 11077ft 400kts
22-Sep-18 17:28 32.958210 -117.300279 162 10285ft 387kts
22-Sep-18 17:29 32.858366 -117.257540 163 8286ft 376kts
22-Sep-18 17:30 32.792076 -117.174409 103 7069ft 334kts
22-Sep-18 17:31 32.775920 -117.076123 101 6961ft 293kts
22-Sep-18 17:32 32.761089 -116.986834 101 5115ft 256kts
22-Sep-18 17:33 32.746475 -116.905885 101 4995ft 249kts
22-Sep-18 17:34 32.731901 -116.825564 102 4995ft 249kts
22-Sep-18 17:35 32.679261 -116.800712 221 4996ft 230kts
22-Sep-18 17:36 32.652718 -116.867117 251 4995ft 223kts
22-Sep-18 17:37 32.664649 -116.934131 301 5031ft 219kts
22-Sep-18 17:38 32.690567 -116.993360 284 3881ft 179kts
22-Sep-18 17:39 32.701785 -117.049595 283 3043ft 169kts
22-Sep-18 17:40 32.711307 -117.098831 289 2059ft 128kts
22-Sep-18 17:41 32.721572 -117.140605 288 1193ft 128kts
22-Sep-18 17:42 32.731452 -117.181015 286 59ft 122kts
22-Sep-18 17:43 32.735106 -117.198327 195 29ft 0kts
22-Sep-18 17:44 32.735103 -117.198328 195 29ft 0kts

Navigation Log

Ident Type
Flight plan parsing failed, navigation log unavailable